Milverton, Canada
Current Conditions -  °F | °C
As of 3:00 AM on Thursday 29 Jan 2015 (Local Time) from CYKF Reporting Station
Overcast Overcast  
Wind Chill:   Ceiling: 8000
Heat Index: 19°   Visibility: 9mi
Dew Point: 14°   Wind: 8mph
Humidity: 80%   Direction: 140°SE
Pressure: 30.14"   Gusts: NA
Location:  43.57°N, 80.93°W
Report Text: CYKF 290800Z AUTO 14007KT 9SM OVC080 M07/M10 A3014 RMK SLP224
Loading
Personal Weather Stations






























Interactive Weather Map New forecast layout! Learn more

10-Day Weather Forecast

Advertisements
Track Severe Weather on mobile